sensor_id;sensor_type;location;lat;lon;timestamp;pressure;altitude;pressure_sealevel;temperature;humidity
6464;BME280;3265;42.694;23.282;2023-03-03T00:01:30;94661.69;;;5.20;100.00
6464;BME280;3265;42.694;23.282;2023-03-03T00:03:58;94668.59;;;5.20;100.00
6464;BME280;3265;42.694;23.282;2023-03-03T00:06:25;94653.72;;;5.15;100.00
6464;BME280;3265;42.694;23.282;2023-03-03T00:08:54;94672.84;;;5.27;100.00
6464;BME280;3265;42.694;23.282;2023-03-03T00:11:22;94664.56;;;5.32;100.00
6464;BME280;3265;42.694;23.282;2023-03-03T00:13:50;94660.41;;;5.31;100.00
6464;BME280;3265;42.694;23.282;2023-03-03T00:16:23;94654.25;;;5.32;100.00
6464;BME280;3265;42.694;23.282;2023-03-03T00:18:52;94660.56;;;5.29;100.00
6464;BME280;3265;42.694;23.282;2023-03-03T00:21:25;94629.25;;;5.04;100.00
6464;BME280;3265;42.694;23.282;2023-03-03T00:23:54;94647.69;;;5.29;100.00
6464;BME280;3265;42.694;23.282;2023-03-03T00:26:29;94657.81;;;5.31;100.00
6464;BME280;3265;42.694;23.282;2023-03-03T00:28:58;94652.84;;;5.29;100.00
6464;BME280;3265;42.694;23.282;2023-03-03T00:31:30;94638.78;;;5.32;100.00
6464;BME280;3265;42.694;23.282;2023-03-03T00:34:18;94634.28;;;5.34;100.00
6464;BME280;3265;42.694;23.282;2023-03-03T00:36:48;94647.56;;;5.37;100.00
6464;BME280;3265;42.694;23.282;2023-03-03T00:39:25;94653.94;;;5.41;100.00
6464;BME280;3265;42.694;23.282;2023-03-03T00:41:52;94615.81;;;5.09;100.00
6464;BME280;3265;42.694;23.282;2023-03-03T00:44:39;94644.16;;;5.30;100.00
6464;BME280;3265;42.694;23.282;2023-03-03T00:47:22;94605.16;;;5.12;100.00
6464;BME280;3265;42.694;23.282;2023-03-03T00:49:52;94593.59;;;5.01;100.00
6464;BME280;3265;42.694;23.282;2023-03-03T00:52:19;94607.97;;;5.17;100.00
6464;BME280;3265;42.694;23.282;2023-03-03T00:54:46;94590.56;;;5.19;100.00
6464;BME280;3265;42.694;23.282;2023-03-03T00:57:13;94616.78;;;5.29;100.00
6464;BME280;3265;42.694;23.282;2023-03-03T00:59:40;94614.44;;;5.34;100.00
6464;BME280;3265;42.694;23.282;2023-03-03T01:02:07;94615.06;;;5.36;100.00
6464;BME280;3265;42.694;23.282;2023-03-03T01:04:34;94596.16;;;5.29;100.00
6464;BME280;3265;42.694;23.282;2023-03-03T01:07:02;94612.13;;;5.39;100.00
6464;BME280;3265;42.694;23.282;2023-03-03T01:09:29;94579.69;;;5.24;100.00
6464;BME280;3265;42.694;23.282;2023-03-03T01:11:56;94610.50;;;5.38;100.00
6464;BME280;3265;42.694;23.282;2023-03-03T01:14:24;94607.13;;;5.38;100.00
6464;BME280;3265;42.694;23.282;2023-03-03T01:16:51;94595.19;;;5.30;100.00
6464;BME280;3265;42.694;23.282;2023-03-03T01:19:18;94603.75;;;5.37;100.00
6464;BME280;3265;42.694;23.282;2023-03-03T01:21:45;94603.59;;;5.39;100.00
6464;BME280;3265;42.694;23.282;2023-03-03T01:24:13;94596.00;;;5.31;100.00
6464;BME280;3265;42.694;23.282;2023-03-03T01:26:40;94597.19;;;5.35;100.00
6464;BME280;3265;42.694;23.282;2023-03-03T01:29:07;94606.09;;;5.32;100.00
6464;BME280;3265;42.694;23.282;2023-03-03T01:31:34;94603.59;;;5.39;100.00
6464;BME280;3265;42.694;23.282;2023-03-03T01:34:01;94572.69;;;5.18;100.00
6464;BME280;3265;42.694;23.282;2023-03-03T01:36:28;94604.56;;;5.38;100.00
6464;BME280;3265;42.694;23.282;2023-03-03T01:38:55;94585.06;;;5.29;100.00
6464;BME280;3265;42.694;23.282;2023-03-03T01:41:27;94600.63;;;5.42;100.00
6464;BME280;3265;42.694;23.282;2023-03-03T01:43:57;94591.44;;;5.33;100.00
6464;BME280;3265;42.694;23.282;2023-03-03T01:49:24;94596.50;;;5.47;100.00
6464;BME280;3265;42.694;23.282;2023-03-03T01:51:55;94578.38;;;5.34;100.00
6464;BME280;3265;42.694;23.282;2023-03-03T01:54:25;94586.34;;;5.39;100.00
6464;BME280;3265;42.694;23.282;2023-03-03T01:56:58;94559.88;;;5.24;100.00
6464;BME280;3265;42.694;23.282;2023-03-03T01:59:28;94586.16;;;5.41;100.00
6464;BME280;3265;42.694;23.282;2023-03-03T02:01:56;94584.59;;;5.46;100.00
6464;BME280;3265;42.694;23.282;2023-03-03T02:04:24;94588.66;;;5.34;100.00
6464;BME280;3265;42.694;23.282;2023-03-03T02:06:56;94593.81;;;5.34;100.00
6464;BME280;3265;42.694;23.282;2023-03-03T02:09:28;94598.00;;;5.35;100.00
6464;BME280;3265;42.694;23.282;2023-03-03T02:12:04;94581.38;;;5.38;100.00
6464;BME280;3265;42.694;23.282;2023-03-03T02:14:32;94591.66;;;5.38;100.00
6464;BME280;3265;42.694;23.282;2023-03-03T02:17:00;94584.69;;;5.32;100.00
6464;BME280;3265;42.694;23.282;2023-03-03T02:19:32;94595.06;;;5.38;100.00
6464;BME280;3265;42.694;23.282;2023-03-03T02:22:02;94597.25;;;5.41;100.00
6464;BME280;3265;42.694;23.282;2023-03-03T02:24:34;94557.25;;;5.18;100.00
6464;BME280;3265;42.694;23.282;2023-03-03T02:27:06;94597.69;;;5.45;100.00
6464;BME280;3265;42.694;23.282;2023-03-03T02:29:33;94578.00;;;5.37;100.00
6464;BME280;3265;42.694;23.282;2023-03-03T02:31:59;94593.44;;;5.37;100.00
6464;BME280;3265;42.694;23.282;2023-03-03T02:34:27;94595.06;;;5.38;100.00
6464;BME280;3265;42.694;23.282;2023-03-03T02:36:53;94592.69;;;5.37;100.00
6464;BME280;3265;42.694;23.282;2023-03-03T02:39:22;94594.44;;;5.36;100.00
6464;BME280;3265;42.694;23.282;2023-03-03T02:41:52;94578.94;;;5.30;100.00
6464;BME280;3265;42.694;23.282;2023-03-03T02:44:26;94557.44;;;5.16;100.00
6464;BME280;3265;42.694;23.282;2023-03-03T02:46:55;94577.97;;;5.31;100.00
6464;BME280;3265;42.694;23.282;2023-03-03T02:49:24;94575.00;;;5.34;100.00
6464;BME280;3265;42.694;23.282;2023-03-03T02:51:52;94590.31;;;5.42;100.00
6464;BME280;3265;42.694;23.282;2023-03-03T02:54:21;94585.59;;;5.45;100.00
6464;BME280;3265;42.694;23.282;2023-03-03T02:56:48;94585.19;;;5.48;100.00
6464;BME280;3265;42.694;23.282;2023-03-03T02:59:15;94579.06;;;5.49;100.00
6464;BME280;3265;42.694;23.282;2023-03-03T03:01:45;94574.50;;;5.45;100.00
6464;BME280;3265;42.694;23.282;2023-03-03T03:04:13;94579.28;;;5.48;100.00
6464;BME280;3265;42.694;23.282;2023-03-03T03:06:41;94576.88;;;5.46;100.00
6464;BME280;3265;42.694;23.282;2023-03-03T03:09:09;94580.44;;;5.45;100.00
6464;BME280;3265;42.694;23.282;2023-03-03T03:11:36;94574.00;;;5.35;100.00
6464;BME280;3265;42.694;23.282;2023-03-03T03:14:05;94565.91;;;5.38;100.00
6464;BME280;3265;42.694;23.282;2023-03-03T03:16:33;94578.66;;;5.46;100.00
6464;BME280;3265;42.694;23.282;2023-03-03T03:19:02;94575.03;;;5.40;100.00
6464;BME280;3265;42.694;23.282;2023-03-03T03:21:30;94579.22;;;5.41;100.00
6464;BME280;3265;42.694;23.282;2023-03-03T03:23:57;94574.28;;;5.46;100.00
6464;BME280;3265;42.694;23.282;2023-03-03T03:26:24;94573.75;;;5.51;100.00
6464;BME280;3265;42.694;23.282;2023-03-03T03:28:52;94573.09;;;5.42;100.00
6464;BME280;3265;42.694;23.282;2023-03-03T03:31:20;94566.13;;;5.36;100.00
6464;BME280;3265;42.694;23.282;2023-03-03T03:33:47;94557.19;;;5.11;100.00
6464;BME280;3265;42.694;23.282;2023-03-03T03:36:16;94566.75;;;5.17;100.00
6464;BME280;3265;42.694;23.282;2023-03-03T03:38:43;94554.72;;;5.24;100.00
6464;BME280;3265;42.694;23.282;2023-03-03T03:41:11;94524.66;;;5.03;100.00
6464;BME280;3265;42.694;23.282;2023-03-03T03:43:38;94565.63;;;5.26;100.00
6464;BME280;3265;42.694;23.282;2023-03-03T03:46:05;94561.22;;;5.20;100.00
6464;BME280;3265;42.694;23.282;2023-03-03T03:48:33;94557.63;;;5.14;100.00
6464;BME280;3265;42.694;23.282;2023-03-03T03:51:00;94534.38;;;5.08;100.00
6464;BME280;3265;42.694;23.282;2023-03-03T03:53:29;94563.25;;;5.25;100.00
6464;BME280;3265;42.694;23.282;2023-03-03T03:55:56;94557.69;;;5.21;100.00
6464;BME280;3265;42.694;23.282;2023-03-03T03:58:23;94561.19;;;5.13;100.00
6464;BME280;3265;42.694;23.282;2023-03-03T04:00:50;94555.53;;;5.25;100.00
6464;BME280;3265;42.694;23.282;2023-03-03T04:03:16;94554.94;;;5.29;100.00
6464;BME280;3265;42.694;23.282;2023-03-03T04:05:43;94534.50;;;5.21;100.00
6464;BME280;3265;42.694;23.282;2023-03-03T04:08:10;94539.22;;;5.18;100.00
6464;BME280;3265;42.694;23.282;2023-03-03T04:10:39;94552.16;;;5.24;100.00
6464;BME280;3265;42.694;23.282;2023-03-03T04:13:06;94557.31;;;5.24;100.00
6464;BME280;3265;42.694;23.282;2023-03-03T04:15:33;94546.41;;;5.22;100.00
6464;BME280;3265;42.694;23.282;2023-03-03T04:18:00;94553.19;;;5.30;100.00
6464;BME280;3265;42.694;23.282;2023-03-03T04:20:27;94543.84;;;5.29;100.00
6464;BME280;3265;42.694;23.282;2023-03-03T04:22:54;94554.94;;;5.29;100.00
6464;BME280;3265;42.694;23.282;2023-03-03T04:25:22;94552.56;;;5.28;100.00
6464;BME280;3265;42.694;23.282;2023-03-03T04:27:50;94551.56;;;5.29;100.00
6464;BME280;3265;42.694;23.282;2023-03-03T04:30:18;94541.78;;;5.18;100.00
6464;BME280;3265;42.694;23.282;2023-03-03T04:32:45;94547.81;;;5.25;100.00
6464;BME280;3265;42.694;23.282;2023-03-03T04:35:14;94543.03;;;5.28;100.00
6464;BME280;3265;42.694;23.282;2023-03-03T04:37:40;94546.41;;;5.29;100.00
6464;BME280;3265;42.694;23.282;2023-03-03T04:40:08;94537.66;;;5.23;100.00
6464;BME280;3265;42.694;23.282;2023-03-03T04:42:35;94543.44;;;5.25;100.00
6464;BME280;3265;42.694;23.282;2023-03-03T04:45:05;94549.94;;;5.21;100.00
6464;BME280;3265;42.694;23.282;2023-03-03T04:47:32;94548.31;;;5.13;100.00
6464;BME280;3265;42.694;23.282;2023-03-03T04:49:59;94520.31;;;5.04;100.00
6464;BME280;3265;42.694;23.282;2023-03-03T04:52:26;94548.72;;;5.17;100.00
6464;BME280;3265;42.694;23.282;2023-03-03T04:54:53;94537.59;;;5.10;100.00
6464;BME280;3265;42.694;23.282;2023-03-03T04:57:20;94549.94;;;5.21;100.00
6464;BME280;3265;42.694;23.282;2023-03-03T04:59:47;94540.03;;;5.18;100.00
6464;BME280;3265;42.694;23.282;2023-03-03T05:02:15;94544.38;;;5.18;100.00
6464;BME280;3265;42.694;23.282;2023-03-03T05:04:43;94555.63;;;5.10;100.00
6464;BME280;3265;42.694;23.282;2023-03-03T05:07:10;94537.75;;;5.08;100.00
6464;BME280;3265;42.694;23.282;2023-03-03T05:09:37;94555.69;;;5.23;100.00
6464;BME280;3265;42.694;23.282;2023-03-03T05:12:04;94552.53;;;5.21;100.00
6464;BME280;3265;42.694;23.282;2023-03-03T05:14:31;94555.53;;;5.25;100.00
6464;BME280;3265;42.694;23.282;2023-03-03T05:16:58;94562.25;;;5.26;100.00
6464;BME280;3265;42.694;23.282;2023-03-03T05:19:27;94542.16;;;5.14;100.00
6464;BME280;3265;42.694;23.282;2023-03-03T05:21:54;94564.47;;;5.29;100.00
6464;BME280;3265;42.694;23.282;2023-03-03T05:24:22;94556.50;;;5.24;100.00
6464;BME280;3265;42.694;23.282;2023-03-03T05:26:49;94558.94;;;5.32;100.00
6464;BME280;3265;42.694;23.282;2023-03-03T05:29:15;94565.47;;;5.34;100.00
6464;BME280;3265;42.694;23.282;2023-03-03T05:31:42;94566.34;;;5.41;100.00
6464;BME280;3265;42.694;23.282;2023-03-03T05:34:09;94560.97;;;5.43;100.00
6464;BME280;3265;42.694;23.282;2023-03-03T05:36:38;94559.97;;;5.37;100.00
6464;BME280;3265;42.694;23.282;2023-03-03T05:39:05;94519.94;;;5.07;100.00
6464;BME280;3265;42.694;23.282;2023-03-03T05:41:31;94534.50;;;5.21;100.00
6464;BME280;3265;42.694;23.282;2023-03-03T05:44:01;94553.34;;;5.28;100.00
6464;BME280;3265;42.694;23.282;2023-03-03T05:46:28;94549.81;;;5.29;100.00
6464;BME280;3265;42.694;23.282;2023-03-03T05:48:54;94565.38;;;5.42;100.00
6464;BME280;3265;42.694;23.282;2023-03-03T05:51:21;94564.72;;;5.40;100.00
6464;BME280;3265;42.694;23.282;2023-03-03T05:53:50;94570.91;;;5.46;100.00
6464;BME280;3265;42.694;23.282;2023-03-03T05:56:17;94558.19;;;5.38;100.00
6464;BME280;3265;42.694;23.282;2023-03-03T05:58:44;94565.53;;;5.41;100.00
6464;BME280;3265;42.694;23.282;2023-03-03T06:01:11;94552.38;;;5.29;100.00
6464;BME280;3265;42.694;23.282;2023-03-03T06:03:38;94536.88;;;5.23;100.00
6464;BME280;3265;42.694;23.282;2023-03-03T06:06:05;94559.97;;;5.37;100.00
6464;BME280;3265;42.694;23.282;2023-03-03T06:08:33;94567.31;;;5.40;100.00
6464;BME280;3265;42.694;23.282;2023-03-03T06:11:02;94572.47;;;5.40;100.00
6464;BME280;3265;42.694;23.282;2023-03-03T06:13:29;94566.13;;;5.43;100.00
6464;BME280;3265;42.694;23.282;2023-03-03T06:15:56;94575.91;;;5.47;100.00
6464;BME280;3265;42.694;23.282;2023-03-03T06:18:22;94563.09;;;5.33;100.00
6464;BME280;3265;42.694;23.282;2023-03-03T06:20:51;94575.28;;;5.45;100.00
6464;BME280;3265;42.694;23.282;2023-03-03T06:23:18;94576.88;;;5.46;100.00
6464;BME280;3265;42.694;23.282;2023-03-03T06:25:45;94570.50;;;5.42;100.00
6464;BME280;3265;42.694;23.282;2023-03-03T06:28:14;94570.69;;;5.41;100.00
6464;BME280;3265;42.694;23.282;2023-03-03T06:30:41;94584.97;;;5.43;100.00
6464;BME280;3265;42.694;23.282;2023-03-03T06:33:08;94580.03;;;5.48;100.00
6464;BME280;3265;42.694;23.282;2023-03-03T06:35:35;94575.09;;;5.47;100.00
6464;BME280;3265;42.694;23.282;2023-03-03T06:38:03;94588.84;;;5.54;100.00
6464;BME280;3265;42.694;23.282;2023-03-03T06:40:30;94562.41;;;5.45;100.00
6464;BME280;3265;42.694;23.282;2023-03-03T06:42:56;94571.34;;;5.49;100.00
6464;BME280;3265;42.694;23.282;2023-03-03T06:45:25;94571.59;;;5.61;100.00
6464;BME280;3265;42.694;23.282;2023-03-03T06:47:52;94581.75;;;5.69;100.00
6464;BME280;3265;42.694;23.282;2023-03-03T06:50:19;94589.50;;;5.69;100.00
6464;BME280;3265;42.694;23.282;2023-03-03T06:52:46;94557.66;;;5.49;100.00
6464;BME280;3265;42.694;23.282;2023-03-03T06:55:19;94594.13;;;5.80;100.00
6464;BME280;3265;42.694;23.282;2023-03-03T06:57:47;94594.75;;;5.82;100.00
6464;BME280;3265;42.694;23.282;2023-03-03T07:00:17;94598.97;;;5.90;100.00
6464;BME280;3265;42.694;23.282;2023-03-03T07:02:47;94586.22;;;5.82;100.00
6464;BME280;3265;42.694;23.282;2023-03-03T07:05:20;94581.50;;;5.85;100.00
6464;BME280;3265;42.694;23.282;2023-03-03T07:07:49;94607.94;;;6.00;100.00
6464;BME280;3265;42.694;23.282;2023-03-03T07:10:21;94586.50;;;5.93;100.00
6464;BME280;3265;42.694;23.282;2023-03-03T07:12:48;94573.91;;;5.84;100.00
6464;BME280;3265;42.694;23.282;2023-03-03T07:15:16;94557.84;;;5.82;100.00
6464;BME280;3265;42.694;23.282;2023-03-03T07:17:48;94569.81;;;5.89;100.00
6464;BME280;3265;42.694;23.282;2023-03-03T07:20:19;94601.47;;;6.11;100.00
6464;BME280;3265;42.694;23.282;2023-03-03T07:22:47;94599.09;;;6.16;100.00
6464;BME280;3265;42.694;23.282;2023-03-03T07:25:21;94602.28;;;6.11;100.00
6464;BME280;3265;42.694;23.282;2023-03-03T07:27:52;94600.06;;;6.15;100.00
6464;BME280;3265;42.694;23.282;2023-03-03T07:30:24;94558.94;;;5.94;100.00
6464;BME280;3265;42.694;23.282;2023-03-03T07:32:54;94602.53;;;6.23;100.00
6464;BME280;3265;42.694;23.282;2023-03-03T07:35:38;94582.41;;;6.12;100.00
6464;BME280;3265;42.694;23.282;2023-03-03T07:38:19;94602.69;;;6.21;100.00
6464;BME280;3265;42.694;23.282;2023-03-03T07:40:50;94569.69;;;6.04;100.00
6464;BME280;3265;42.694;23.282;2023-03-03T07:43:29;94594.16;;;6.21;100.00
6464;BME280;3265;42.694;23.282;2023-03-03T07:46:01;94585.63;;;6.20;100.00
6464;BME280;3265;42.694;23.282;2023-03-03T07:48:35;94556.34;;;6.00;100.00
6464;BME280;3265;42.694;23.282;2023-03-03T07:51:10;94591.19;;;6.24;100.00
6464;BME280;3265;42.694;23.282;2023-03-03T07:53:37;94564.75;;;6.09;100.00
6464;BME280;3265;42.694;23.282;2023-03-03T07:56:14;94551.81;;;6.02;100.00
6464;BME280;3265;42.694;23.282;2023-03-03T07:58:42;94592.44;;;6.35;100.00
6464;BME280;3265;42.694;23.282;2023-03-03T08:01:28;94565.94;;;6.13;100.00
6464;BME280;3265;42.694;23.282;2023-03-03T08:03:59;94553.84;;;6.13;100.00
6464;BME280;3265;42.694;23.282;2023-03-03T08:06:45;94586.69;;;6.39;100.00
6464;BME280;3265;42.694;23.282;2023-03-03T08:09:40;94589.47;;;6.44;100.00
6464;BME280;3265;42.694;23.282;2023-03-03T08:15:11;94568.22;;;6.29;100.00
6464;BME280;3265;42.694;23.282;2023-03-03T08:17:41;94589.06;;;6.41;100.00
6464;BME280;3265;42.694;23.282;2023-03-03T08:20:38;94583.94;;;6.47;100.00
6464;BME280;3265;42.694;23.282;2023-03-03T08:23:06;94556.47;;;6.26;100.00
6464;BME280;3265;42.694;23.282;2023-03-03T08:25:33;94573.63;;;6.54;100.00
6464;BME280;3265;42.694;23.282;2023-03-03T08:28:00;94569.44;;;6.46;100.00
6464;BME280;3265;42.694;23.282;2023-03-03T08:30:27;94560.50;;;6.42;100.00
6464;BME280;3265;42.694;23.282;2023-03-03T08:32:55;94558.88;;;6.41;100.00
6464;BME280;3265;42.694;23.282;2023-03-03T08:35:22;94573.03;;;6.58;100.00
6464;BME280;3265;42.694;23.282;2023-03-03T08:37:50;94543.00;;;6.44;100.00
6464;BME280;3265;42.694;23.282;2023-03-03T08:40:20;94562.91;;;6.57;100.00
6464;BME280;3265;42.694;23.282;2023-03-03T08:42:46;94558.16;;;6.67;100.00
6464;BME280;3265;42.694;23.282;2023-03-03T08:45:14;94566.31;;;6.77;100.00
6464;BME280;3265;42.694;23.282;2023-03-03T08:47:44;94571.91;;;6.80;100.00
6464;BME280;3265;42.694;23.282;2023-03-03T08:50:11;94575.88;;;6.83;100.00
6464;BME280;3265;42.694;23.282;2023-03-03T08:52:38;94572.28;;;6.77;100.00
6464;BME280;3265;42.694;23.282;2023-03-03T08:55:07;94573.88;;;6.72;100.00
6464;BME280;3265;42.694;23.282;2023-03-03T08:57:34;94560.16;;;6.71;100.00
6464;BME280;3265;42.694;23.282;2023-03-03T09:00:04;94567.28;;;6.63;100.00
6464;BME280;3265;42.694;23.282;2023-03-03T09:02:33;94561.09;;;6.51;100.00
6464;BME280;3265;42.694;23.282;2023-03-03T09:05:02;94582.59;;;6.71;100.00
6464;BME280;3265;42.694;23.282;2023-03-03T09:07:29;94559.97;;;6.66;100.00
6464;BME280;3265;42.694;23.282;2023-03-03T09:09:56;94580.63;;;6.79;100.00
6464;BME280;3265;42.694;23.282;2023-03-03T09:12:32;94577.88;;;6.81;100.00
6464;BME280;3265;42.694;23.282;2023-03-03T09:15:11;94563.34;;;6.73;100.00
6464;BME280;3265;42.694;23.282;2023-03-03T09:17:39;94566.72;;;6.74;100.00
6464;BME280;3265;42.694;23.282;2023-03-03T09:20:20;94558.19;;;6.80;100.00
6464;BME280;3265;42.694;23.282;2023-03-03T09:22:49;94535.53;;;6.69;100.00
6464;BME280;3265;42.694;23.282;2023-03-03T09:25:21;94572.09;;;6.99;100.00
6464;BME280;3265;42.694;23.282;2023-03-03T09:27:51;94575.09;;;7.09;100.00
6464;BME280;3265;42.694;23.282;2023-03-03T09:30:34;94570.31;;;7.19;100.00
6464;BME280;3265;42.694;23.282;2023-03-03T09:33:19;94571.13;;;7.19;100.00
6464;BME280;3265;42.694;23.282;2023-03-03T09:35:49;94571.53;;;7.29;100.00
6464;BME280;3265;42.694;23.282;2023-03-03T09:38:27;94560.00;;;7.12;100.00
6464;BME280;3265;42.694;23.282;2023-03-03T09:41:20;94573.91;;;7.24;100.00
6464;BME280;3265;42.694;23.282;2023-03-03T09:44:12;94564.16;;;7.26;100.00
6464;BME280;3265;42.694;23.282;2023-03-03T09:46:49;94564.75;;;7.28;100.00
6464;BME280;3265;42.694;23.282;2023-03-03T09:49:24;94571.72;;;7.28;100.00
6464;BME280;3265;42.694;23.282;2023-03-03T09:52:17;94576.69;;;7.23;100.00
6464;BME280;3265;42.694;23.282;2023-03-03T09:54:55;94554.63;;;7.07;100.00
6464;BME280;3265;42.694;23.282;2023-03-03T09:57:32;94578.88;;;7.26;100.00
6464;BME280;3265;42.694;23.282;2023-03-03T10:03:58;94569.34;;;7.26;100.00
6464;BME280;3265;42.694;23.282;2023-03-03T10:06:33;94569.13;;;7.28;100.00
6464;BME280;3265;42.694;23.282;2023-03-03T10:09:30;94565.75;;;7.27;100.00
6464;BME280;3265;42.694;23.282;2023-03-03T10:12:05;94562.56;;;7.25;100.00
6464;BME280;3265;42.694;23.282;2023-03-03T10:14:47;94565.75;;;7.34;100.00
6464;BME280;3265;42.694;23.282;2023-03-03T10:17:21;94556.59;;;7.25;100.00
6464;BME280;3265;42.694;23.282;2023-03-03T10:20:03;94552.84;;;7.21;100.00
6464;BME280;3265;42.694;23.282;2023-03-03T10:22:40;94525.81;;;6.97;100.00
6464;BME280;3265;42.694;23.282;2023-03-03T10:25:19;94524.44;;;7.01;100.00
6464;BME280;3265;42.694;23.282;2023-03-03T10:27:58;94556.63;;;7.12;100.00
6464;BME280;3265;42.694;23.282;2023-03-03T10:30:39;94544.88;;;7.03;100.00
6464;BME280;3265;42.694;23.282;2023-03-03T10:33:11;94551.25;;;7.07;100.00
6464;BME280;3265;42.694;23.282;2023-03-03T10:36:00;94558.41;;;7.11;100.00
6464;BME280;3265;42.694;23.282;2023-03-03T10:38:44;94553.06;;;7.13;100.00
6464;BME280;3265;42.694;23.282;2023-03-03T10:41:31;94552.84;;;7.14;100.00
6464;BME280;3265;42.694;23.282;2023-03-03T10:44:18;94550.44;;;7.19;100.00
6464;BME280;3265;42.694;23.282;2023-03-03T10:47:09;94546.06;;;7.13;100.00
6464;BME280;3265;42.694;23.282;2023-03-03T10:49:49;94546.50;;;7.04;100.00
6464;BME280;3265;42.694;23.282;2023-03-03T10:52:37;94534.13;;;6.93;100.00
6464;BME280;3265;42.694;23.282;2023-03-03T10:58:32;94536.53;;;7.07;100.00
6464;BME280;3265;42.694;23.282;2023-03-03T11:01:09;94519.03;;;6.96;100.00
6464;BME280;3265;42.694;23.282;2023-03-03T11:06:46;94524.81;;;7.05;100.00
6464;BME280;3265;42.694;23.282;2023-03-03T11:09:43;94521.66;;;7.09;100.00
6464;BME280;3265;42.694;23.282;2023-03-03T11:12:27;94491.44;;;6.83;100.00
6464;BME280;3265;42.694;23.282;2023-03-03T11:15:08;94494.41;;;6.54;100.00
6464;BME280;3265;42.694;23.282;2023-03-03T11:17:52;94522.63;;;6.69;100.00
6464;BME280;3265;42.694;23.282;2023-03-03T11:20:59;94512.28;;;6.69;100.00
6464;BME280;3265;42.694;23.282;2023-03-03T11:23:40;94507.28;;;6.48;100.00
6464;BME280;3265;42.694;23.282;2023-03-03T11:26:20;94500.34;;;6.42;100.00
6464;BME280;3265;42.694;23.282;2023-03-03T11:29:05;94504.75;;;6.61;100.00
6464;BME280;3265;42.694;23.282;2023-03-03T11:31:40;94507.94;;;6.82;100.00
6464;BME280;3265;42.694;23.282;2023-03-03T11:34:21;94498.78;;;6.73;100.00
6464;BME280;3265;42.694;23.282;2023-03-03T11:36:56;94511.09;;;6.65;100.00
6464;BME280;3265;42.694;23.282;2023-03-03T11:39:24;94491.81;;;6.48;100.00
6464;BME280;3265;42.694;23.282;2023-03-03T11:42:07;94507.94;;;6.69;100.00
6464;BME280;3265;42.694;23.282;2023-03-03T11:44:44;94501.16;;;6.81;100.00
6464;BME280;3265;42.694;23.282;2023-03-03T11:47:17;94498.19;;;6.84;100.00
6464;BME280;3265;42.694;23.282;2023-03-03T11:49:54;94498.41;;;6.90;100.00
6464;BME280;3265;42.694;23.282;2023-03-03T11:52:30;94492.63;;;6.94;100.00
6464;BME280;3265;42.694;23.282;2023-03-03T11:55:07;94495.00;;;7.09;100.00
6464;BME280;3265;42.694;23.282;2023-03-03T11:57:42;94491.44;;;6.97;100.00
6464;BME280;3265;42.694;23.282;2023-03-03T12:00:27;94491.44;;;6.77;100.00
6464;BME280;3265;42.694;23.282;2023-03-03T12:06:06;94490.44;;;6.98;100.00
6464;BME280;3265;42.694;23.282;2023-03-03T12:11:40;94472.94;;;7.00;100.00
6464;BME280;3265;42.694;23.282;2023-03-03T12:14:21;94480.50;;;6.95;100.00
6464;BME280;3265;42.694;23.282;2023-03-03T12:16:55;94483.50;;;6.98;100.00
6464;BME280;3265;42.694;23.282;2023-03-03T12:19:31;94451.91;;;6.83;100.00
6464;BME280;3265;42.694;23.282;2023-03-03T12:22:20;94491.84;;;7.07;100.00
6464;BME280;3265;42.694;23.282;2023-03-03T12:27:58;94486.84;;;6.99;100.00
6464;BME280;3265;42.694;23.282;2023-03-03T12:30:37;94487.06;;;6.91;100.00
6464;BME280;3265;42.694;23.282;2023-03-03T12:33:27;94484.66;;;6.76;100.00
6464;BME280;3265;42.694;23.282;2023-03-03T12:36:05;94499.75;;;6.72;100.00
6464;BME280;3265;42.694;23.282;2023-03-03T12:38:41;94484.88;;;6.61;100.00
6464;BME280;3265;42.694;23.282;2023-03-03T12:41:17;94497.38;;;6.64;100.00
6464;BME280;3265;42.694;23.282;2023-03-03T12:43:54;94490.63;;;6.70;100.00
6464;BME280;3265;42.694;23.282;2023-03-03T12:46:32;94485.47;;;6.57;100.00
6464;BME280;3265;42.694;23.282;2023-03-03T12:49:01;94486.03;;;6.52;100.00
6464;BME280;3265;42.694;23.282;2023-03-03T12:51:35;94491.84;;;6.61;100.00
6464;BME280;3265;42.694;23.282;2023-03-03T12:54:18;94495.19;;;6.61;100.00
6464;BME280;3265;42.694;23.282;2023-03-03T12:56:50;94490.44;;;6.71;100.00
6464;BME280;3265;42.694;23.282;2023-03-03T12:59:22;94487.06;;;6.64;100.00
6464;BME280;3265;42.694;23.282;2023-03-03T13:02:18;94494.78;;;6.51;100.00
6464;BME280;3265;42.694;23.282;2023-03-03T13:04:52;94488.63;;;6.46;100.00
6464;BME280;3265;42.694;23.282;2023-03-03T13:07:27;94494.59;;;6.59;100.00
6464;BME280;3265;42.694;23.282;2023-03-03T13:10:11;94485.69;;;6.68;100.00
6464;BME280;3265;42.694;23.282;2023-03-03T13:12:44;94486.69;;;6.80;100.00
6464;BME280;3265;42.694;23.282;2023-03-03T13:15:15;94488.06;;;6.90;100.00
6464;BME280;3265;42.694;23.282;2023-03-03T13:17:53;94485.88;;;7.06;100.00
6464;BME280;3265;42.694;23.282;2023-03-03T13:20:30;94486.03;;;7.24;100.00
6464;BME280;3265;42.694;23.282;2023-03-03T13:23:06;94485.03;;;7.38;100.00
6464;BME280;3265;42.694;23.282;2023-03-03T13:25:47;94474.03;;;7.56;100.00
6464;BME280;3265;42.694;23.282;2023-03-03T13:28:21;94468.25;;;7.67;100.00
6464;BME280;3265;42.694;23.282;2023-03-03T13:30:56;94471.72;;;7.92;100.00
6464;BME280;3265;42.694;23.282;2023-03-03T13:33:29;94481.78;;;8.14;100.00
6464;BME280;3265;42.694;23.282;2023-03-03T13:36:00;94485.13;;;8.27;100.00
6464;BME280;3265;42.694;23.282;2023-03-03T13:38:30;94484.09;;;8.28;100.00
6464;BME280;3265;42.694;23.282;2023-03-03T13:41:04;94482.91;;;8.24;100.00
6464;BME280;3265;42.694;23.282;2023-03-03T13:43:37;94481.78;;;8.14;100.00
6464;BME280;3265;42.694;23.282;2023-03-03T13:46:14;94479.88;;;7.96;100.00
6464;BME280;3265;42.694;23.282;2023-03-03T13:48:55;94479.25;;;8.00;100.00
6464;BME280;3265;42.694;23.282;2023-03-03T13:51:37;94475.66;;;8.02;100.00
6464;BME280;3265;42.694;23.282;2023-03-03T13:54:18;94473.47;;;8.05;100.00
6464;BME280;3265;42.694;23.282;2023-03-03T13:57:03;94462.91;;;8.00;100.00
6464;BME280;3265;42.694;23.282;2023-03-03T13:59:42;94463.94;;;7.99;100.00
6464;BME280;3265;42.694;23.282;2023-03-03T14:02:40;94480.00;;;8.08;100.00